Time;durP1;ratioP1;P1;durP2;ratioP2;P2;SDS_P1;SDS_P2;PMS_P1;PMS_P2;Temp;Humidity;BMP_temperature;BMP_pressure;BME280_temperature;BME280_humidity;BME280_pressure;Samples;Min_cycle;Max_cycle;Signal;HPM_P1;HPM_P2
2022/01/15 00:01:22;;;;;;;63.10;29.30;;;;;;;-1.92;83.37;97726.35;110032;1250;59733;-66
2022/01/15 00:03:51;;;;;;;65.70;28.30;;;;;;;-1.89;83.47;97736.89;109865;1250;59711;-66
2022/01/15 00:06:21;;;;;;;59.90;30.80;;;;;;;-1.86;83.41;97744.69;109809;1249;71567;-69
2022/01/15 00:08:50;;;;;;;65.10;30.10;;;;;;;-1.83;83.75;97746.50;110149;1249;67882;-67
2022/01/15 00:11:19;;;;;;;66.60;31.70;;;;;;;-1.80;83.51;97742.70;110130;1250;69436;-67
2022/01/15 00:13:57;;;;;;;48.70;22.70;;;;;;;-1.77;83.40;97743.67;110154;1250;59684;-66
2022/01/15 00:16:34;;;;;;;40.70;21.40;;;;;;;-1.74;83.31;97741.40;110156;1250;59686;-66
2022/01/15 00:19:08;;;;;;;66.70;32.80;;;;;;;-1.70;83.15;97743.73;110061;1250;71737;-68
2022/01/15 00:21:37;;;;;;;64.90;31.40;;;;;;;-1.68;82.95;97742.98;110151;1250;68573;-67
2022/01/15 00:24:07;;;;;;;59.80;28.70;;;;;;;-1.66;82.73;97749.81;110148;1250;69010;-67
2022/01/15 00:26:36;;;;;;;47.00;22.20;;;;;;;-1.65;82.65;97751.81;110121;1249;59683;-67
2022/01/15 00:29:05;;;;;;;58.20;25.70;;;;;;;-1.61;82.63;97763.02;110178;1248;59654;-67
2022/01/15 00:31:34;;;;;;;45.70;22.80;;;;;;;-1.58;82.60;97761.95;110040;1249;70833;-67
2022/01/15 00:34:03;;;;;;;48.20;23.00;;;;;;;-1.56;82.46;97764.30;110063;1250;68593;-67
2022/01/15 00:36:33;;;;;;;47.20;21.60;;;;;;;-1.56;82.43;97768.05;110045;1248;68633;-68
2022/01/15 00:39:02;;;;;;;52.10;22.30;;;;;;;-1.56;82.52;97766.19;109961;1249;59752;-69
2022/01/15 00:41:32;;;;;;;37.80;22.00;;;;;;;-1.55;82.45;97757.80;110099;1250;59753;-68
2022/01/15 00:44:01;;;;;;;47.70;25.30;;;;;;;-1.56;82.67;97764.30;110123;1248;71598;-69
2022/01/15 00:46:31;;;;;;;47.00;24.40;;;;;;;-1.53;82.55;97780.67;109984;1250;67500;-66
2022/01/15 00:49:00;;;;;;;47.70;20.80;;;;;;;-1.52;82.53;97785.61;110140;1250;68481;-69
2022/01/15 00:51:29;;;;;;;41.60;20.00;;;;;;;-1.48;82.38;97788.94;110237;1247;59713;-67
2022/01/15 00:53:58;;;;;;;52.50;24.30;;;;;;;-1.46;82.26;97788.58;110202;1247;59724;-67
2022/01/15 00:56:28;;;;;;;41.10;20.90;;;;;;;-1.43;82.23;97795.00;110212;1247;71977;-67
2022/01/15 00:58:58;;;;;;;43.00;20.70;;;;;;;-1.41;82.24;97794.46;109918;1249;68593;-66
2022/01/15 01:01:27;;;;;;;48.30;21.80;;;;;;;-1.40;82.34;97789.82;110052;1250;69533;-67
2022/01/15 01:03:57;;;;;;;34.00;18.00;;;;;;;-1.38;82.26;97795.44;110162;1250;59776;-67
2022/01/15 01:06:26;;;;;;;39.80;18.90;;;;;;;-1.37;82.20;97787.71;110152;1248;59733;-67
2022/01/15 01:08:56;;;;;;;40.20;20.40;;;;;;;-1.35;82.04;97789.70;110132;1250;71461;-66
2022/01/15 01:12:22;;;;;;;42.60;18.90;;;;;;;-1.33;81.99;97794.81;110119;1249;67852;-67
2022/01/15 01:20:07;;;;;;;25.70;13.40;;;;;;;-1.28;81.73;97791.98;110221;1248;59630;-68
2022/01/15 01:25:07;;;;;;;;;;;;;;;-1.26;81.64;97800.48;110198;1250;68630;-67
2022/01/15 01:27:49;;;;;;;31.80;13.80;;;;;;;-1.27;81.56;97793.66;109947;1250;68938;-67
2022/01/15 01:30:26;;;;;;;29.90;16.70;;;;;;;-1.26;81.50;97791.95;110150;1250;59695;-67
2022/01/15 01:33:16;;;;;;;34.70;18.10;;;;;;;-1.26;81.45;97793.48;110167;1250;59719;-65
2022/01/15 01:35:50;;;;;;;29.60;16.10;;;;;;;-1.26;81.50;97800.15;110159;1250;71109;-67
2022/01/15 01:38:29;;;;;;;31.90;14.20;;;;;;;-1.25;81.52;97800.97;110166;1250;68668;-68
2022/01/15 01:41:00;;;;;;;26.90;14.00;;;;;;;-1.22;81.42;97800.42;109833;1250;67506;-67
2022/01/15 01:46:52;;;;;;;24.10;13.00;;;;;;;-1.21;81.27;97803.13;110191;1248;59736;-67
2022/01/15 01:49:00;;;;;;;23.50;10.70;;;;;;;-1.21;81.31;97809.97;110006;1250;70722;-67
2022/01/15 01:51:35;;;;;;;26.70;13.60;;;;;;;-1.19;81.26;97813.20;110139;1250;67895;-66
2022/01/15 01:54:10;;;;;;;23.60;14.20;;;;;;;-1.19;81.42;97814.39;110164;1250;69366;-67
2022/01/15 01:56:40;;;;;;;28.20;15.60;;;;;;;-1.19;81.39;97815.76;110147;1247;59815;-67
2022/01/15 01:59:10;;;;;;;24.60;13.50;;;;;;;-1.18;81.23;97825.30;110178;1247;59693;-69
2022/01/15 02:01:39;;;;;;;31.70;16.10;;;;;;;-1.17;81.20;97830.23;109922;1250;70743;-67
2022/01/15 02:04:10;;;;;;;28.30;15.70;;;;;;;-1.16;81.19;97829.88;110089;1248;67776;-67
2022/01/15 02:06:40;;;;;;;32.40;15.50;;;;;;;-1.15;81.21;97831.91;110069;1247;69246;-66
2022/01/15 02:09:10;;;;;;;30.30;13.40;;;;;;;-1.15;81.16;97834.31;109932;1249;59728;-67
2022/01/15 02:11:40;;;;;;;28.90;14.50;;;;;;;-1.14;81.16;97838.56;109841;1250;59724;-68
2022/01/15 02:14:23;;;;;;;31.60;15.10;;;;;;;-1.13;81.26;97840.61;110005;1250;71341;-69
2022/01/15 02:16:52;;;;;;;30.00;15.90;;;;;;;-1.13;81.17;97843.67;110259;1248;68519;-68
2022/01/15 02:19:21;;;;;;;36.40;18.50;;;;;;;-1.14;81.19;97850.70;110194;1250;69653;-67
2022/01/15 02:24:20;;;;;;;30.70;16.60;;;;;;;-1.15;81.45;97850.58;110179;1250;59747;-67
2022/01/15 02:26:49;;;;;;;28.70;14.90;;;;;;;-1.15;81.59;97860.30;110158;1250;71340;-67
2022/01/15 02:29:19;;;;;;;27.40;13.70;;;;;;;-1.14;81.39;97865.26;110089;1250;68392;-67
2022/01/15 02:31:49;;;;;;;32.50;14.90;;;;;;;-1.16;81.30;97866.48;110064;1250;68470;-67
2022/01/15 02:34:19;;;;;;;30.10;15.40;;;;;;;-1.15;81.17;97879.12;109979;1250;59719;-67
2022/01/15 02:36:48;;;;;;;24.90;12.80;;;;;;;-1.14;81.01;97882.88;110064;1250;59637;-66
2022/01/15 02:39:18;;;;;;;27.10;14.70;;;;;;;-1.14;80.76;97884.58;110155;1250;70728;-67
2022/01/15 02:41:47;;;;;;;30.70;15.70;;;;;;;-1.15;80.75;97887.52;110181;1248;68579;-69
2022/01/15 02:44:17;;;;;;;30.20;14.10;;;;;;;-1.14;80.81;97885.95;109930;1250;69388;-66
2022/01/15 02:49:17;;;;;;;28.60;14.50;;;;;;;-1.15;80.61;97883.91;110026;1248;59688;-66
2022/01/15 02:51:47;;;;;;;33.10;14.60;;;;;;;-1.15;80.47;97885.29;109787;1250;70974;-66
2022/01/15 02:54:17;;;;;;;24.40;12.90;;;;;;;-1.17;80.29;97887.04;109927;1250;68008;-68
2022/01/15 02:56:47;;;;;;;23.90;12.70;;;;;;;-1.20;80.38;97887.77;110161;1247;69051;-68
2022/01/15 02:59:22;;;;;;;24.40;12.30;;;;;;;-1.21;80.49;97887.78;110020;1250;59708;-67
2022/01/15 03:01:51;;;;;;;28.90;12.60;;;;;;;-1.20;80.26;97886.23;110155;1250;59697;-65
2022/01/15 03:04:20;;;;;;;28.20;14.00;;;;;;;-1.21;80.04;97888.13;109937;1250;70791;-66
2022/01/15 03:06:50;;;;;;;28.20;13.80;;;;;;;-1.23;79.88;97890.21;110191;1250;68501;-66
2022/01/15 03:09:19;;;;;;;29.00;14.90;;;;;;;-1.21;79.81;97898.04;110020;1250;68527;-69
2022/01/15 03:11:50;;;;;;;27.90;15.90;;;;;;;-1.21;79.90;97894.11;110156;1250;59703;-68
2022/01/15 03:14:20;;;;;;;21.40;11.50;;;;;;;-1.20;79.85;97894.45;110036;1250;59696;-68
2022/01/15 03:16:49;;;;;;;30.70;16.10;;;;;;;-1.21;79.73;97893.77;110149;1249;71604;-69
2022/01/15 03:19:38;;;;;;;21.40;11.10;;;;;;;-1.24;79.80;97894.69;110081;1250;68005;-67
2022/01/15 03:22:08;;;;;;;29.20;15.70;;;;;;;-1.25;79.70;97900.69;110263;1247;68441;-66
2022/01/15 03:24:37;;;;;;;27.20;15.60;;;;;;;-1.25;79.84;97902.23;110200;1248;59621;-68
2022/01/15 03:27:07;;;;;;;25.50;13.40;;;;;;;-1.25;79.57;97901.20;110241;1248;59660;-67
2022/01/15 03:29:37;;;;;;;21.60;11.40;;;;;;;-1.26;79.27;97902.77;110233;1248;71560;-67
2022/01/15 03:32:07;;;;;;;26.70;12.80;;;;;;;-1.28;79.09;97901.09;110216;1248;68593;-67
2022/01/15 03:34:36;;;;;;;30.10;16.50;;;;;;;-1.27;79.26;97906.39;109930;1250;68776;-66
2022/01/15 03:37:06;;;;;;;;;;;;;;;-1.27;79.10;97903.81;110202;1247;59679;-66
2022/01/15 03:39:35;;;;;;;24.40;11.80;;;;;;;-1.29;78.91;97906.73;110193;1248;59710;-69
2022/01/15 03:42:12;;;;;;;22.90;11.80;;;;;;;-1.30;79.09;97907.10;110116;1250;70798;-67
2022/01/15 03:44:44;;;;;;;31.60;15.70;;;;;;;-1.30;79.19;97905.90;110119;1250;68556;-66
2022/01/15 03:47:14;;;;;;;26.40;13.10;;;;;;;-1.31;79.31;97909.33;110154;1250;69437;-66
2022/01/15 03:49:43;;;;;;;26.10;14.30;;;;;;;-1.29;79.33;97908.29;110151;1250;59751;-66
2022/01/15 03:52:12;;;;;;;22.00;12.40;;;;;;;-1.29;79.30;97910.02;110148;1250;59763;-68
2022/01/15 03:54:42;;;;;;;29.60;15.60;;;;;;;-1.30;79.33;97907.95;110172;1247;71685;-68
2022/01/15 03:57:11;;;;;;;27.90;16.00;;;;;;;-1.29;79.28;97913.77;110193;1248;68095;-67
2022/01/15 03:59:41;;;;;;;;;;;;;;;-1.30;79.11;97914.96;110260;1248;69338;-67
2022/01/15 04:02:10;;;;;;;23.70;12.10;;;;;;;-1.29;79.17;97912.56;110171;1250;59670;-68
2022/01/15 04:04:39;;;;;;;25.40;12.20;;;;;;;-1.31;79.05;97917.72;110206;1247;59680;-68
2022/01/15 04:07:09;;;;;;;27.70;14.30;;;;;;;-1.32;79.01;97918.77;110188;1248;71573;-66
2022/01/15 04:09:38;;;;;;;27.30;14.20;;;;;;;-1.34;79.10;97915.89;110176;1249;67901;-66
2022/01/15 04:12:08;;;;;;;31.50;17.60;;;;;;;-1.35;79.02;97916.59;110158;1250;69471;-64
2022/01/15 04:14:37;;;;;;;32.10;17.20;;;;;;;-1.41;78.48;97918.92;110154;1250;59674;-69
2022/01/15 04:17:07;;;;;;;27.10;14.80;;;;;;;-1.46;78.23;97920.89;110067;1250;59696;-68
2022/01/15 04:19:40;;;;;;;31.10;16.30;;;;;;;-1.47;78.23;97919.55;110108;1251;71652;-68
2022/01/15 04:22:09;;;;;;;30.70;16.20;;;;;;;-1.51;77.83;97924.73;110167;1248;68614;-66
2022/01/15 04:24:38;;;;;;;31.90;15.80;;;;;;;-1.52;77.55;97928.02;110146;1247;68565;-67
2022/01/15 04:27:13;;;;;;;25.90;12.70;;;;;;;-1.54;77.64;97930.26;110043;1251;59747;-67
2022/01/15 04:29:52;;;;;;;24.50;11.90;;;;;;;-1.57;77.31;97929.45;110149;1250;59671;-66
2022/01/15 04:32:21;;;;;;;28.00;12.40;;;;;;;-1.58;77.41;97933.90;110192;1249;71756;-68
2022/01/15 04:34:51;;;;;;;32.50;16.10;;;;;;;-1.66;77.34;97938.30;110051;1250;68653;-69
2022/01/15 04:37:23;;;;;;;23.40;11.90;;;;;;;-1.69;77.34;97935.96;110008;1250;69375;-68
2022/01/15 04:39:52;;;;;;;31.10;16.20;;;;;;;-1.72;77.48;97934.63;109917;1251;59693;-66
2022/01/15 04:42:25;;;;;;;28.80;15.50;;;;;;;-1.75;77.53;97937.25;109910;1251;59727;-67
2022/01/15 04:44:54;;;;;;;21.60;12.30;;;;;;;-1.78;77.61;97935.60;110138;1249;70899;-66
2022/01/15 04:47:24;;;;;;;29.40;13.20;;;;;;;-1.80;77.66;97936.48;110142;1250;68019;-67
2022/01/15 04:49:55;;;;;;;28.70;13.50;;;;;;;-1.81;77.62;97938.20;109766;1251;69478;-66
2022/01/15 04:52:25;;;;;;;21.50;11.80;;;;;;;-1.82;77.69;97940.61;109753;1250;59755;-66
2022/01/15 04:54:54;;;;;;;26.30;12.70;;;;;;;-1.83;77.75;97940.79;109868;1249;60012;-70
2022/01/15 04:57:24;;;;;;;26.80;13.90;;;;;;;-1.84;77.84;97940.82;110114;1251;71484;-67
2022/01/15 04:59:53;;;;;;;26.00;13.90;;;;;;;-1.84;77.90;97943.55;110080;1250;67629;-67
2022/01/15 05:02:23;;;;;;;24.90;13.20;;;;;;;-1.85;77.85;97947.14;109908;1251;69274;-65
2022/01/15 05:04:52;;;;;;;30.10;15.40;;;;;;;-1.84;77.89;97953.97;109979;1250;59716;-66
2022/01/15 05:07:22;;;;;;;27.60;15.30;;;;;;;-1.86;77.97;97950.39;109896;1251;59757;-67
2022/01/15 05:09:51;;;;;;;27.40;15.40;;;;;;;-1.88;78.12;97957.27;109886;1251;71654;-65
2022/01/15 05:12:28;;;;;;;29.60;14.70;;;;;;;-1.88;78.13;97956.58;109965;1250;68590;-66
2022/01/15 05:14:58;;;;;;;25.40;13.50;;;;;;;-1.87;78.13;97953.32;109914;1247;68629;-66
2022/01/15 05:17:28;;;;;;;23.10;12.10;;;;;;;-1.85;78.07;97954.66;110073;1250;59734;-66
2022/01/15 05:19:58;;;;;;;24.30;13.90;;;;;;;-1.84;78.08;97958.58;109941;1250;59671;-66
2022/01/15 05:22:27;;;;;;;24.70;13.20;;;;;;;-1.82;78.10;97967.95;109820;1251;70838;-66
2022/01/15 05:24:56;;;;;;;29.40;15.00;;;;;;;-1.81;78.18;97971.68;109951;1249;68704;-67
2022/01/15 05:27:26;;;;;;;34.00;15.90;;;;;;;-1.81;78.06;97969.46;109909;1250;68578;-67
2022/01/15 05:29:55;;;;;;;24.50;12.70;;;;;;;-1.78;77.98;97975.07;109807;1251;59706;-70
2022/01/15 05:32:25;;;;;;;33.50;15.50;;;;;;;-1.77;77.85;97982.57;110259;1249;60144;-69
2022/01/15 05:34:54;;;;;;;30.00;15.70;;;;;;;-1.76;77.66;97983.58;110173;1248;71120;-68
2022/01/15 05:37:27;;;;;;;26.50;13.30;;;;;;;-1.80;77.24;97986.03;110117;1250;68638;-66
2022/01/15 05:39:56;;;;;;;23.40;12.70;;;;;;;-1.78;77.28;97989.42;110126;1250;69403;-66
2022/01/15 05:42:25;;;;;;;24.80;13.90;;;;;;;-1.80;77.51;97989.95;109988;1250;59745;-68
2022/01/15 05:44:54;;;;;;;25.20;13.60;;;;;;;-1.79;77.47;97990.46;109920;1250;59636;-66
2022/01/15 05:47:23;;;;;;;21.90;12.60;;;;;;;-1.77;77.62;97987.34;109944;1249;71559;-66
2022/01/15 05:49:53;;;;;;;29.90;14.80;;;;;;;-1.74;77.65;97987.14;109877;1251;67850;-68
2022/01/15 05:52:23;;;;;;;32.20;15.80;;;;;;;-1.72;77.48;97993.77;110139;1250;68705;-68
2022/01/15 05:54:52;;;;;;;28.60;16.10;;;;;;;-1.73;77.45;97990.70;110128;1250;59621;-66
2022/01/15 05:57:21;;;;;;;26.90;14.20;;;;;;;-1.73;77.46;97994.98;110024;1251;59744;-66
2022/01/15 05:59:51;;;;;;;37.30;18.50;;;;;;;-1.70;77.59;97993.75;110134;1250;70805;-66
2022/01/15 06:02:21;;;;;;;28.30;15.20;;;;;;;-1.71;77.53;97988.13;110137;1250;68624;-68
2022/01/15 06:04:50;;;;;;;28.60;15.20;;;;;;;-1.73;77.74;97997.73;110181;1250;69122;-68
2022/01/15 06:07:20;;;;;;;26.70;13.60;;;;;;;-1.74;77.91;98005.60;110099;1250;59798;-67
2022/01/15 06:09:49;;;;;;;17.80;10.00;;;;;;;-1.71;77.93;98005.73;110089;1248;59677;-67
2022/01/15 06:12:18;;;;;;;28.60;15.20;;;;;;;-1.69;78.01;98014.93;110172;1247;70764;-66
2022/01/15 06:14:47;;;;;;;31.60;17.00;;;;;;;-1.68;78.07;98016.27;110100;1250;67836;-66
2022/01/15 06:17:17;;;;;;;24.90;14.60;;;;;;;-1.68;78.24;98020.19;109908;1248;69498;-68
2022/01/15 06:19:46;;;;;;;27.80;16.10;;;;;;;-1.67;78.49;98019.67;110121;1250;59719;-68
2022/01/15 06:22:15;;;;;;;26.00;13.30;;;;;;;-1.68;78.65;98024.80;109872;1251;60179;-66
2022/01/15 06:24:44;;;;;;;34.20;18.70;;;;;;;-1.67;78.58;98026.67;110073;1250;71561;-67
2022/01/15 06:27:19;;;;;;;26.80;15.50;;;;;;;-1.69;78.67;98031.83;110173;1250;67799;-66
2022/01/15 06:29:48;;;;;;;24.30;12.10;;;;;;;-1.67;78.75;98036.09;110029;1247;70220;-68
2022/01/15 06:32:17;;;;;;;24.30;12.20;;;;;;;-1.64;78.37;98038.60;110138;1248;59736;-69
2022/01/15 06:34:46;;;;;;;23.30;13.60;;;;;;;-1.61;78.23;98037.19;110117;1248;59711;-66
2022/01/15 06:37:15;;;;;;;20.60;11.20;;;;;;;-1.58;78.18;98040.04;110042;1248;70765;-67
2022/01/15 06:39:44;;;;;;;23.40;14.40;;;;;;;-1.58;77.92;98039.03;110044;1250;68577;-67
2022/01/15 06:42:13;;;;;;;34.70;17.20;;;;;;;-1.54;77.84;98039.82;110055;1250;68657;-68
2022/01/15 06:44:42;;;;;;;32.60;17.20;;;;;;;-1.60;78.07;98039.73;110105;1250;59828;-69
2022/01/15 06:47:10;;;;;;;31.10;17.50;;;;;;;-1.59;78.09;98039.73;110077;1248;59692;-68
2022/01/15 06:49:39;;;;;;;35.90;18.50;;;;;;;-1.62;78.22;98040.12;110005;1249;72356;-68
2022/01/15 06:52:08;;;;;;;32.40;16.00;;;;;;;-1.68;78.45;98039.17;110109;1250;68430;-67
2022/01/15 06:54:37;;;;;;;30.20;16.00;;;;;;;-1.67;78.48;98043.60;109694;1251;67876;-66
2022/01/15 06:57:07;;;;;;;29.40;15.40;;;;;;;-1.68;78.47;98046.52;109957;1249;59754;-67
2022/01/15 06:59:36;;;;;;;26.10;14.00;;;;;;;-1.65;78.50;98057.93;110087;1250;59708;-66
2022/01/15 07:02:07;;;;;;;29.40;15.80;;;;;;;-1.63;78.44;98058.06;110005;1249;71486;-66
2022/01/15 07:04:36;;;;;;;27.60;14.30;;;;;;;-1.61;78.28;98059.23;109848;1251;69179;-68
2022/01/15 07:07:06;;;;;;;23.80;13.10;;;;;;;-1.57;77.81;98059.88;110201;1249;69513;-66
2022/01/15 07:09:35;;;;;;;23.00;13.00;;;;;;;-1.52;77.70;98063.58;110185;1249;60160;-69
2022/01/15 07:12:04;;;;;;;26.60;14.90;;;;;;;-1.47;77.41;98061.44;110113;1250;59682;-67
2022/01/15 07:14:33;;;;;;;25.10;13.00;;;;;;;-1.46;76.73;98062.96;110176;1250;72254;-68
2022/01/15 07:17:03;;;;;;;23.10;12.10;;;;;;;-1.46;76.48;98063.65;110102;1250;68249;-68
2022/01/15 07:19:31;;;;;;;22.00;12.50;;;;;;;-1.42;76.71;98065.13;110005;1249;69373;-68
2022/01/15 07:22:01;;;;;;;23.60;10.70;;;;;;;-1.39;76.71;98068.85;110120;1250;59666;-68
2022/01/15 07:24:32;;;;;;;21.90;10.70;;;;;;;-1.35;76.67;98072.02;110165;1250;59747;-68
2022/01/15 07:27:01;;;;;;;24.90;13.50;;;;;;;-1.30;76.63;98079.31;110118;1249;71480;-67
2022/01/15 07:29:30;;;;;;;17.00;10.90;;;;;;;-1.27;76.55;98075.16;110182;1247;69267;-67
2022/01/15 07:31:59;;;;;;;21.00;11.90;;;;;;;-1.24;76.67;98078.71;110131;1250;69506;-70
2022/01/15 07:34:28;;;;;;;27.90;14.00;;;;;;;-1.20;76.66;98085.66;110103;1248;59631;-69
2022/01/15 07:36:58;;;;;;;25.10;12.10;;;;;;;-1.18;76.25;98091.13;110222;1250;59689;-68
2022/01/15 07:39:28;;;;;;;23.10;11.00;;;;;;;-1.19;76.47;98093.02;110010;1249;72133;-68
2022/01/15 07:41:59;;;;;;;21.00;11.30;;;;;;;-1.15;76.26;98092.61;110232;1247;68594;-65
2022/01/15 07:44:29;;;;;;;20.00;10.50;;;;;;;-1.11;76.11;98099.40;109851;1249;69388;-67
2022/01/15 07:46:58;;;;;;;22.40;12.40;;;;;;;-1.14;75.05;98101.83;110191;1247;59694;-68
2022/01/15 07:49:27;;;;;;;18.20;10.30;;;;;;;-1.12;75.64;98102.30;110196;1247;59738;-68
2022/01/15 07:51:56;;;;;;;21.50;12.20;;;;;;;-1.11;75.40;98101.77;110173;1247;70367;-68
2022/01/15 07:54:26;;;;;;;28.10;14.90;;;;;;;-1.09;75.04;98099.17;110190;1248;69210;-68
2022/01/15 07:56:55;;;;;;;24.00;12.70;;;;;;;-1.06;75.44;98099.64;110185;1247;70447;-68
2022/01/15 07:59:26;;;;;;;23.70;13.00;;;;;;;-1.03;74.20;98098.07;110200;1247;59739;-69
2022/01/15 08:01:54;;;;;;;;;;;;;;;-1.03;73.55;98101.99;110185;1247;59615;-68
2022/01/15 08:04:23;;;;;;;78.80;34.90;;;;;;;-1.01;74.01;98100.61;110126;1250;71311;-67
2022/01/15 08:06:52;;;;;;;35.40;16.00;;;;;;;-0.97;73.82;98101.05;110219;1247;69191;-68
2022/01/15 08:09:21;;;;;;;18.80;10.40;;;;;;;-0.96;73.32;98103.10;110183;1247;70158;-68
2022/01/15 08:11:50;;;;;;;30.80;18.30;;;;;;;-0.90;73.60;98108.14;110139;1247;59687;-69
2022/01/15 08:14:19;;;;;;;25.00;15.80;;;;;;;-0.87;73.42;98109.79;110164;1248;59662;-68
2022/01/15 08:16:48;;;;;;;9.40;6.00;;;;;;;-0.82;73.11;98110.92;110218;1247;72133;-70
2022/01/15 08:19:17;;;;;;;17.50;9.40;;;;;;;-0.81;72.53;98111.75;110203;1247;68134;-67
2022/01/15 08:21:46;;;;;;;20.00;11.70;;;;;;;-0.82;72.91;98112.98;110222;1247;68895;-67
2022/01/15 08:24:15;;;;;;;16.60;9.10;;;;;;;-0.80;72.75;98112.07;110168;1247;60075;-67
2022/01/15 08:26:45;;;;;;;16.80;9.10;;;;;;;-0.78;73.02;98113.42;110169;1248;59630;-68
2022/01/15 08:29:14;;;;;;;23.30;16.30;;;;;;;-0.74;72.54;98114.20;110196;1247;71826;-67
2022/01/15 08:31:42;;;;;;;27.40;14.50;;;;;;;-0.74;72.61;98116.95;110159;1248;67809;-68
2022/01/15 08:34:11;;;;;;;25.30;14.40;;;;;;;-0.78;72.48;98119.56;110118;1248;70458;-68
2022/01/15 08:36:40;;;;;;;27.70;15.80;;;;;;;-0.76;72.93;98122.63;110165;1247;59759;-67
2022/01/15 08:39:10;;;;;;;27.50;17.00;;;;;;;-0.76;72.91;98122.46;110022;1248;59739;-68
2022/01/15 08:41:40;;;;;;;27.20;18.10;;;;;;;-0.76;72.75;98123.82;110198;1247;72204;-67
2022/01/15 08:44:09;;;;;;;33.90;20.50;;;;;;;-0.73;72.60;98125.66;110209;1247;68991;-67
2022/01/15 08:46:38;;;;;;;30.70;16.40;;;;;;;-0.71;72.51;98129.91;110170;1247;70102;-70
2022/01/15 08:49:07;;;;;;;27.50;16.80;;;;;;;-0.68;72.54;98131.55;110182;1247;60181;-66
2022/01/15 08:51:36;;;;;;;19.60;11.90;;;;;;;-0.64;72.34;98133.03;110158;1247;59778;-69
2022/01/15 08:54:05;;;;;;;21.90;11.80;;;;;;;-0.62;72.18;98138.48;110212;1248;72137;-67
2022/01/15 08:56:34;;;;;;;22.40;13.70;;;;;;;-0.61;72.25;98143.42;110205;1248;69069;-67
2022/01/15 08:59:04;;;;;;;20.80;11.10;;;;;;;-0.60;72.43;98146.15;110161;1248;69292;-67
2022/01/15 09:01:33;;;;;;;20.90;11.10;;;;;;;-0.57;72.45;98146.09;110161;1247;60007;-66
2022/01/15 09:04:02;;;;;;;18.90;11.00;;;;;;;-0.52;72.38;98142.75;110205;1247;59826;-67
2022/01/15 09:06:31;;;;;;;19.60;12.30;;;;;;;-0.50;72.43;98142.40;110135;1247;71949;-67
2022/01/15 09:09:00;;;;;;;18.60;10.50;;;;;;;-0.48;72.24;98137.73;110207;1247;69210;-68
2022/01/15 09:11:29;;;;;;;22.80;11.60;;;;;;;-0.43;72.02;98140.40;110222;1247;69397;-67
2022/01/15 09:13:58;;;;;;;15.00;8.50;;;;;;;-0.40;71.82;98148.23;109999;1247;59726;-68
2022/01/15 09:16:27;;;;;;;17.80;9.30;;;;;;;-0.39;71.59;98144.95;109994;1247;59721;-69
2022/01/15 09:18:57;;;;;;;19.90;10.40;;;;;;;-0.40;71.41;98148.56;110146;1248;70617;-67
2022/01/15 09:21:26;;;;;;;20.30;11.80;;;;;;;-0.39;71.33;98147.68;110225;1247;68551;-67
2022/01/15 09:23:55;;;;;;;14.40;7.90;;;;;;;-0.36;71.46;98146.77;110185;1247;69228;-68
2022/01/15 09:26:46;;;;;;;15.90;8.60;;;;;;;-0.31;71.06;98147.38;110221;1247;59627;-69
2022/01/15 09:32:03;;;;;;;15.20;8.40;;;;;;;-0.23;70.82;98147.23;110210;1247;71391;-69
2022/01/15 09:34:34;;;;;;;19.00;9.70;;;;;;;-0.20;70.91;98147.16;110240;1247;68372;-68
2022/01/15 09:37:06;;;;;;;16.90;9.00;;;;;;;-0.18;70.77;98149.36;110037;1248;69911;-68
2022/01/15 09:39:36;;;;;;;15.00;8.80;;;;;;;-0.17;70.59;98143.52;110205;1247;59745;-69
2022/01/15 09:42:05;;;;;;;16.90;8.30;;;;;;;-0.15;70.55;98137.15;110217;1247;59682;-68
2022/01/15 09:44:34;;;;;;;16.30;9.20;;;;;;;-0.14;70.37;98144.84;110231;1247;72308;-68
2022/01/15 09:47:08;;;;;;;17.50;9.80;;;;;;;-0.14;70.45;98144.33;110216;1247;69036;-68
2022/01/15 09:49:42;;;;;;;14.80;8.70;;;;;;;-0.14;70.48;98151.52;110279;1247;69502;-68
2022/01/15 09:52:13;;;;;;;22.00;12.10;;;;;;;-0.11;70.69;98152.31;110177;1247;59731;-70
2022/01/15 09:54:42;;;;;;;86.50;37.10;;;;;;;-0.07;70.75;98154.81;110158;1247;59754;-69
2022/01/15 09:57:14;;;;;;;74.00;30.90;;;;;;;-0.03;70.73;98152.51;110197;1247;72339;-69
2022/01/15 09:59:43;;;;;;;74.50;31.60;;;;;;;0.01;70.65;98156.38;110190;1247;68446;-68
2022/01/15 10:02:13;;;;;;;22.80;13.30;;;;;;;0.03;70.63;98148.80;110187;1247;69404;-68
2022/01/15 10:04:42;;;;;;;35.20;16.20;;;;;;;-0.00;70.47;98147.83;110187;1247;59704;-68
2022/01/15 10:07:13;;;;;;;36.00;18.20;;;;;;;0.01;70.83;98152.45;110132;1247;59682;-68
2022/01/15 10:09:43;;;;;;;38.80;24.00;;;;;;;0.06;70.70;98148.41;110149;1247;71582;-68
2022/01/15 10:12:24;;;;;;;122.70;71.50;;;;;;;0.08;70.72;98146.13;110247;1248;69073;-68
2022/01/15 10:14:58;;;;;;;27.60;18.10;;;;;;;0.13;70.84;98145.17;110202;1248;68505;-68
2022/01/15 10:17:32;;;;;;;22.70;13.20;;;;;;;0.14;70.19;98146.54;110201;1247;59737;-68
2022/01/15 10:20:14;;;;;;;21.20;11.70;;;;;;;0.14;70.27;98151.16;110175;1247;59650;-68
2022/01/15 10:22:46;;;;;;;23.70;13.20;;;;;;;0.13;70.12;98148.61;110186;1247;72118;-68
2022/01/15 10:25:20;;;;;;;16.50;11.10;;;;;;;0.16;70.13;98147.87;110191;1247;68738;-67
2022/01/15 10:27:56;;;;;;;17.10;10.10;;;;;;;0.23;69.62;98138.81;110154;1247;69868;-70
2022/01/15 10:30:28;;;;;;;17.90;9.00;;;;;;;0.29;69.44;98136.30;110151;1247;59747;-68
2022/01/15 10:33:06;;;;;;;25.80;14.80;;;;;;;0.38;69.45;98133.37;110183;1247;59688;-68
2022/01/15 10:35:41;;;;;;;44.40;26.00;;;;;;;0.59;69.15;98128.64;110229;1247;71492;-69
2022/01/15 10:38:14;;;;;;;35.80;19.40;;;;;;;1.17;67.94;98129.22;110173;1247;68662;-69
2022/01/15 10:40:53;;;;;;;18.20;10.80;;;;;;;1.89;65.98;98126.73;110233;1247;69386;-68
2022/01/15 10:43:33;;;;;;;19.00;11.00;;;;;;;2.14;64.46;98125.02;110022;1250;59681;-66
2022/01/15 10:46:02;;;;;;;37.90;22.40;;;;;;;2.21;63.19;98120.33;110133;1247;59646;-69
2022/01/15 10:48:35;;;;;;;21.50;12.50;;;;;;;2.34;62.30;98115.33;110186;1248;69860;-68
2022/01/15 10:51:07;;;;;;;22.40;13.50;;;;;;;2.53;61.55;98113.41;110244;1247;68621;-68
2022/01/15 10:53:37;;;;;;;17.70;10.40;;;;;;;2.72;61.03;98111.98;110169;1247;69492;-70
2022/01/15 10:56:09;;;;;;;18.50;11.20;;;;;;;3.09;60.78;98116.87;110158;1247;59782;-68
2022/01/15 10:58:38;;;;;;;16.30;9.40;;;;;;;3.87;58.59;98107.89;110211;1248;59688;-68
2022/01/15 11:01:11;;;;;;;18.20;9.90;;;;;;;4.64;56.38;98106.64;110165;1248;71307;-68
2022/01/15 11:03:44;;;;;;;23.10;11.00;;;;;;;5.01;55.29;98104.35;110195;1250;68454;-69
2022/01/15 11:06:13;;;;;;;46.50;22.30;;;;;;;4.92;54.59;98094.54;110181;1247;69846;-69
2022/01/15 11:08:44;;;;;;;37.20;18.80;;;;;;;5.30;54.40;98091.81;110194;1247;59709;-68
2022/01/15 11:11:14;;;;;;;58.80;26.40;;;;;;;5.56;54.49;98084.83;110276;1247;59667;-68
2022/01/15 11:13:47;;;;;;;18.90;12.40;;;;;;;5.57;53.84;98083.91;110181;1247;71359;-68
2022/01/15 11:16:18;;;;;;;48.10;23.60;;;;;;;5.42;53.51;98081.61;110203;1247;68468;-69
2022/01/15 11:18:49;;;;;;;134.80;61.20;;;;;;;5.44;52.82;98079.48;110232;1247;69483;-72
2022/01/15 11:21:20;;;;;;;62.80;31.40;;;;;;;5.43;52.81;98077.95;110256;1247;59719;-69
2022/01/15 11:23:50;;;;;;;22.00;14.50;;;;;;;5.14;53.62;98080.52;110253;1247;59695;-70
2022/01/15 11:26:24;;;;;;;15.70;10.30;;;;;;;4.51;53.24;98078.32;110228;1245;71536;-68
2022/01/15 11:28:55;;;;;;;14.10;9.50;;;;;;;4.07;54.12;98078.39;110179;1248;67656;-68
2022/01/15 11:31:28;;;;;;;16.30;8.70;;;;;;;3.68;53.92;98069.09;110211;1247;69594;-70
2022/01/15 11:34:00;;;;;;;15.90;8.20;;;;;;;3.28;54.05;98067.17;110050;1250;59720;-70
2022/01/15 11:36:35;;;;;;;13.90;8.20;;;;;;;2.94;54.82;98063.78;110192;1250;59796;-67
2022/01/15 11:39:12;;;;;;;15.10;8.70;;;;;;;2.74;55.15;98056.16;110221;1249;71476;-68
2022/01/15 11:41:44;;;;;;;16.80;7.30;;;;;;;3.09;55.42;98053.64;110142;1249;68654;-69
2022/01/15 11:44:19;;;;;;;14.10;8.00;;;;;;;3.16;54.55;98057.05;110048;1250;68829;-68
2022/01/15 11:46:54;;;;;;;17.20;8.10;;;;;;;3.12;54.74;98056.31;110009;1250;59754;-68